Time;durP1;ratioP1;P1;durP2;ratioP2;P2;SDS_P1;SDS_P2;PMS_P1;PMS_P2;Temp;Humidity;BMP_temperature;BMP_pressure;BME280_temperature;BME280_humidity;BME280_pressure;Samples;Min_cycle;Max_cycle;Signal;HPM_P1;HPM_P2
2023/06/08 00:01:04;;;;;;;;;;;;;;;11.45;87.89;101956.81;4986205;28;19932;-77
2023/06/08 00:03:30;;;;;;;;;;;;;;;11.48;87.52;101943.69;5009847;28;19921;-75
2023/06/08 00:05:59;;;;;;;;;;;;;;;11.66;86.87;101947.97;4969490;28;19921;-75
2023/06/08 00:08:25;;;;;;;;;;;;;;;11.64;86.92;101939.34;5010686;28;19925;-75
2023/06/08 00:10:51;;;;;;;;;;;;;;;11.47;87.37;101938.56;4989104;28;19917;-77
2023/06/08 00:13:17;;;;;;;;;;;;;;;11.43;87.52;101937.44;4989318;28;20302;-77
2023/06/08 00:15:42;;;;;;;;;;;;;;;11.70;86.54;101943.72;4972785;28;20410;-76
2023/06/08 00:18:09;;;;;;;;;;;;;;;11.75;86.22;101938.44;5001685;28;19925;-77
2023/06/08 00:20:34;;;;;;;;;;;;;;;11.77;85.64;101947.03;4994770;28;19971;-76
2023/06/08 00:23:03;;;;;;;;;;;;;;;11.68;85.79;101935.13;4994757;28;19960;-77
2023/06/08 00:25:29;;;;;;;;;;;;;;;11.53;86.50;101942.97;4997036;28;19925;-75
2023/06/08 00:27:55;;;;;;;;;;;;;;;11.39;87.17;101928.28;4991002;28;19987;-76
2023/06/08 00:30:20;;;;;;;;;;;;;;;11.29;87.22;101936.16;5027125;28;19921;-77
2023/06/08 00:32:46;;;;;;;;;;;;;;;11.16;87.45;101943.47;4993799;28;19928;-76
2023/06/08 00:35:12;;;;;;;;;;;;;;;10.97;87.95;101939.38;4999946;28;19917;-76
2023/06/08 00:37:37;;;;;;;;;;;;;;;11.07;87.97;101936.88;4995855;28;20371;-76
2023/06/08 00:40:04;;;;;;;;;;;;;;;11.02;87.88;101942.16;5007807;28;20051;-78
2023/06/08 00:42:30;;;;;;;;;;;;;;;11.04;88.04;101934.72;5009191;28;19924;-76
2023/06/08 00:44:56;;;;;;;;;;;;;;;10.82;88.43;101939.13;4970721;28;20676;-76
2023/06/08 00:47:21;;;;;;;;;;;;;;;10.83;88.74;101944.25;4990650;28;19975;-76
2023/06/08 00:49:48;;;;;;;;;;;;;;;10.85;88.68;101942.16;4992458;28;19918;-76
2023/06/08 00:52:15;;;;;;;;;;;;;;;11.07;88.39;101942.25;4991559;28;20047;-76
2023/06/08 00:54:43;;;;;;;;;;;;;;;11.16;87.90;101939.97;4988826;28;20390;-75
2023/06/08 00:57:10;;;;;;;;;;;;;;;10.99;87.74;101937.31;4983849;28;19929;-76
2023/06/08 00:59:36;;;;;;;;;;;;;;;11.03;88.12;101938.41;4991104;28;19994;-74
2023/06/08 01:02:04;;;;;;;;;;;;;;;10.87;88.41;101925.84;5014035;28;19957;-75
2023/06/08 01:04:31;;;;;;;;;;;;;;;10.76;88.40;101937.41;4991839;28;19921;-77
2023/06/08 01:07:22;;;;;;;;;;;;;;;10.62;88.81;101937.72;5009985;28;19940;-76
2023/06/08 01:10:07;;;;;;;;;;;;;;;10.50;88.90;101933.47;4985964;28;19925;-75
2023/06/08 01:12:45;;;;;;;;;;;;;;;10.50;89.47;101934.31;5005917;28;19921;-77
2023/06/08 01:15:34;;;;;;;;;;;;;;;10.59;89.48;101932.06;4986005;28;19917;-76
2023/06/08 01:18:04;;;;;;;;;;;;;;;10.69;89.41;101928.72;4998742;28;20685;-76
2023/06/08 01:20:46;;;;;;;;;;;;;;;10.69;89.01;101934.09;4993535;28;20634;-76
2023/06/08 01:23:25;;;;;;;;;;;;;;;10.59;89.20;101929.38;5008927;28;20019;-76
2023/06/08 01:25:55;;;;;;;;;;;;;;;10.37;89.43;101937.28;4991207;28;19945;-76
2023/06/08 01:28:22;;;;;;;;;;;;;;;10.50;89.13;101930.78;5008912;28;19925;-76
2023/06/08 01:30:51;;;;;;;;;;;;;;;10.36;89.86;101932.94;5007575;28;20008;-76
2023/06/08 01:33:20;;;;;;;;;;;;;;;10.54;89.37;101930.06;4997295;28;19928;-76
2023/06/08 01:35:52;;;;;;;;;;;;;;;10.52;89.60;101926.84;5003488;28;19963;-76
2023/06/08 01:38:23;;;;;;;;;;;;;;;10.68;88.94;101914.53;4984552;28;19925;-78
2023/06/08 01:40:50;;;;;;;;;;;;;;;10.61;89.04;101925.38;5000727;28;20655;-77
2023/06/08 01:43:16;;;;;;;;;;;;;;;10.56;89.14;101919.94;4989151;28;19955;-76
2023/06/08 01:45:45;;;;;;;;;;;;;;;10.57;88.75;101921.59;4992159;28;19946;-76
2023/06/08 01:48:12;;;;;;;;;;;;;;;10.50;88.93;101914.72;5003221;28;19925;-77
2023/06/08 01:50:37;;;;;;;;;;;;;;;10.44;88.83;101913.84;5007303;28;19983;-76
2023/06/08 01:53:05;;;;;;;;;;;;;;;10.39;89.04;101921.78;5007533;28;19925;-75
2023/06/08 01:55:30;;;;;;;;;;;;;;;10.17;89.32;101923.47;4969223;28;19921;-76
2023/06/08 01:57:57;;;;;;;;;;;;;;;9.99;90.08;101927.91;4997967;28;19928;-76
2023/06/08 02:00:23;;;;;;;;;;;;;;;10.00;90.67;101921.50;4996513;28;19921;-77
2023/06/08 02:02:49;;;;;;;;;;;;;;;10.02;90.41;101922.09;4994303;28;19928;-76
2023/06/08 02:05:16;;;;;;;;;;;;;;;10.05;90.32;101926.97;5012154;28;19921;-76
2023/06/08 02:07:42;;;;;;;;;;;;;;;9.97;90.58;101924.69;4996493;28;19932;-78
2023/06/08 02:10:10;;;;;;;;;;;;;;;9.97;90.58;101919.31;5007816;28;19925;-77
2023/06/08 02:12:37;;;;;;;;;;;;;;;9.95;90.66;101924.06;4997739;28;19928;-76
2023/06/08 02:15:03;;;;;;;;;;;;;;;9.86;90.77;101922.81;5000713;28;19921;-76
2023/06/08 02:17:33;;;;;;;;;;;;;;;9.83;90.49;101920.63;4994932;28;19928;-76
2023/06/08 02:20:06;;;;;;;;;;;;;;;9.69;90.55;101916.59;5004770;28;20313;-75
2023/06/08 02:22:35;;;;;;;;;;;;;;;9.82;90.86;101925.19;5005071;28;19925;-77
2023/06/08 02:25:04;;;;;;;;;;;;;;;9.69;90.99;101932.66;4980059;28;20294;-76
2023/06/08 02:27:30;;;;;;;;;;;;;;;9.66;91.15;101938.44;5011353;28;19932;-78
2023/06/08 02:29:57;;;;;;;;;;;;;;;9.80;91.29;101929.94;5008169;28;20397;-75
2023/06/08 02:32:22;;;;;;;;;;;;;;;9.64;91.15;101929.84;4996615;28;19917;-75
2023/06/08 02:34:55;;;;;;;;;;;;;;;9.48;91.45;101926.00;5006175;28;19921;-76
2023/06/08 02:37:23;;;;;;;;;;;;;;;9.46;91.09;101934.25;5008444;28;20412;-76
2023/06/08 02:39:50;;;;;;;;;;;;;;;9.35;91.44;101920.88;4995600;28;19928;-77
2023/06/08 02:42:18;;;;;;;;;;;;;;;9.34;91.25;101920.06;5009660;28;19925;-77
2023/06/08 02:44:47;;;;;;;;;;;;;;;9.27;91.63;101924.72;5017556;28;20335;-77
2023/06/08 02:47:15;;;;;;;;;;;;;;;9.22;91.89;101927.31;4993360;28;19969;-77
2023/06/08 02:49:44;;;;;;;;;;;;;;;9.28;92.15;101921.03;4995051;28;19921;-77
2023/06/08 02:52:10;;;;;;;;;;;;;;;9.24;92.31;101925.19;5002015;28;19947;-76
2023/06/08 02:54:37;;;;;;;;;;;;;;;9.17;92.31;101913.81;4994050;28;19983;-79
2023/06/08 02:57:03;;;;;;;;;;;;;;;9.23;92.63;101915.56;4991086;28;19964;-78
2023/06/08 02:59:36;;;;;;;;;;;;;;;9.31;92.32;101923.22;5011260;28;19928;-76
2023/06/08 03:02:02;;;;;;;;;;;;;;;9.21;92.31;101915.78;4976761;28;19921;-77
2023/06/08 03:04:30;;;;;;;;;;;;;;;9.29;92.36;101928.00;4994941;28;19928;-78
2023/06/08 03:07:01;;;;;;;;;;;;;;;9.20;92.13;101922.16;5017824;28;19921;-76
2023/06/08 03:09:28;;;;;;;;;;;;;;;9.41;92.38;101920.78;4996991;28;19951;-76
2023/06/08 03:11:56;;;;;;;;;;;;;;;9.43;92.11;101924.03;4994926;28;19953;-76
2023/06/08 03:14:28;;;;;;;;;;;;;;;9.56;92.06;101926.47;4980329;28;19928;-77
2023/06/08 03:16:57;;;;;;;;;;;;;;;9.53;92.18;101924.25;5017297;28;19921;-77
2023/06/08 03:19:25;;;;;;;;;;;;;;;9.67;91.74;101929.38;4996301;28;19921;-76
2023/06/08 03:21:51;;;;;;;;;;;;;;;9.67;91.85;101924.81;5003336;28;19921;-76
2023/06/08 03:24:20;;;;;;;;;;;;;;;9.74;91.78;101914.00;4997601;28;19948;-76
2023/06/08 03:26:46;;;;;;;;;;;;;;;9.74;91.93;101914.00;5000856;28;19925;-77
2023/06/08 03:29:13;;;;;;;;;;;;;;;9.89;91.45;101921.53;4982273;28;20383;-77
2023/06/08 03:31:40;;;;;;;;;;;;;;;9.94;91.45;101919.78;4993572;28;20265;-76
2023/06/08 03:34:14;;;;;;;;;;;;;;;9.97;91.54;101918.50;4998127;28;19917;-76
2023/06/08 03:36:40;;;;;;;;;;;;;;;10.16;90.91;101916.47;4988949;28;19917;-76
2023/06/08 03:39:15;;;;;;;;;;;;;;;10.32;90.50;101918.44;5009302;28;19921;-76
2023/06/08 03:41:41;;;;;;;;;;;;;;;10.38;90.21;101922.81;4979090;28;19991;-76
2023/06/08 03:44:07;;;;;;;;;;;;;;;10.49;89.73;101915.78;4981290;28;19921;-75
2023/06/08 03:46:34;;;;;;;;;;;;;;;10.56;89.34;101924.47;5007761;28;19928;-76
2023/06/08 03:49:01;;;;;;;;;;;;;;;10.67;88.83;101926.28;4994163;28;19950;-79
2023/06/08 03:51:26;;;;;;;;;;;;;;;10.76;88.75;101935.56;4993517;28;19922;-76
2023/06/08 03:53:55;;;;;;;;;;;;;;;10.75;89.34;101931.25;4995948;28;19978;-76
2023/06/08 03:56:21;;;;;;;;;;;;;;;10.75;88.33;101919.72;4993287;28;19928;-76
2023/06/08 03:58:48;;;;;;;;;;;;;;;10.76;88.50;101916.78;4991826;28;19917;-78
2023/06/08 04:01:14;;;;;;;;;;;;;;;10.77;88.95;101917.59;4995445;28;19921;-76
2023/06/08 04:03:41;;;;;;;;;;;;;;;10.69;89.61;101908.09;5003092;28;19939;-76
2023/06/08 04:06:08;;;;;;;;;;;;;;;10.76;89.36;101915.97;5018828;28;19928;-77
2023/06/08 04:08:34;;;;;;;;;;;;;;;10.85;88.92;101919.91;4993244;28;19931;-77
2023/06/08 04:11:03;;;;;;;;;;;;;;;10.93;88.94;101916.81;4973942;28;20063;-76
2023/06/08 04:13:28;;;;;;;;;;;;;;;10.89;88.66;101921.84;5003829;28;20370;-76
2023/06/08 04:15:55;;;;;;;;;;;;;;;10.92;88.39;101920.56;4984507;28;19928;-76
2023/06/08 04:18:21;;;;;;;;;;;;;;;10.99;88.15;101920.41;4992042;28;19986;-77
2023/06/08 04:20:47;;;;;;;;;;;;;;;11.04;88.02;101918.63;4993806;28;20359;-76
2023/06/08 04:23:13;;;;;;;;;;;;;;;11.08;87.61;101925.09;5007742;28;19918;-76
2023/06/08 04:25:39;;;;;;;;;;;;;;;11.12;86.92;101930.81;5002777;28;19921;-76
2023/06/08 04:28:05;;;;;;;;;;;;;;;11.17;86.97;101912.09;4975878;28;20279;-75
2023/06/08 04:30:31;;;;;;;;;;;;;;;11.24;87.04;101926.16;5011946;28;19921;-76
2023/06/08 04:32:59;;;;;;;;;;;;;;;11.21;86.42;101924.78;4995868;28;19967;-76
2023/06/08 04:35:24;;;;;;;;;;;;;;;11.29;86.61;101922.75;5025438;28;19921;-76
2023/06/08 04:37:51;;;;;;;;;;;;;;;11.32;86.60;101919.59;5001998;28;19972;-78
2023/06/08 04:40:16;;;;;;;;;;;;;;;11.41;86.76;101918.09;4990653;28;20339;-75
2023/06/08 04:42:44;;;;;;;;;;;;;;;11.42;85.74;101914.34;4992390;28;19940;-77
2023/06/08 04:45:11;;;;;;;;;;;;;;;11.34;85.58;101917.47;4992401;28;19921;-78
2023/06/08 04:47:41;;;;;;;;;;;;;;;11.33;86.17;101915.84;5006819;28;20405;-76
2023/06/08 04:50:08;;;;;;;;;;;;;;;11.46;85.13;101910.94;4991671;28;19920;-76
2023/06/08 04:52:45;;;;;;;;;;;;;;;11.46;85.44;101915.50;5008891;28;19971;-77
2023/06/08 04:55:14;;;;;;;;;;;;;;;11.66;84.50;101901.56;4989519;28;20282;-77
2023/06/08 04:57:40;;;;;;;;;;;;;;;11.67;84.49;101895.94;4999950;28;19964;-77
2023/06/08 05:00:09;;;;;;;;;;;;;;;11.72;84.45;101901.38;4992264;28;19924;-76
2023/06/08 05:02:35;;;;;;;;;;;;;;;11.91;83.76;101906.44;5010262;28;19928;-75
2023/06/08 05:05:01;;;;;;;;;;;;;;;11.82;83.63;101907.94;4983570;28;19925;-77
2023/06/08 05:07:27;;;;;;;;;;;;;;;11.95;83.30;101907.56;4977415;28;19995;-75
2023/06/08 05:09:54;;;;;;;;;;;;;;;11.90;83.34;101915.56;5019888;28;20682;-78
2023/06/08 05:12:20;;;;;;;;;;;;;;;11.94;83.29;101905.97;4994557;28;19918;-75
2023/06/08 05:14:46;;;;;;;;;;;;;;;11.94;82.79;101905.97;4990413;28;19917;-75
2023/06/08 05:17:12;;;;;;;;;;;;;;;11.98;83.32;101913.25;4992476;28;19921;-77
2023/06/08 05:19:37;;;;;;;;;;;;;;;11.97;82.42;101905.44;5003140;28;19986;-76
2023/06/08 05:22:03;;;;;;;;;;;;;;;11.91;82.93;101907.25;4988976;28;19923;-75
2023/06/08 05:24:29;;;;;;;;;;;;;;;12.03;82.42;101915.19;5012650;28;19927;-74
2023/06/08 05:26:55;;;;;;;;;;;;;;;12.13;82.29;101909.94;5009041;28;20317;-76
2023/06/08 05:29:20;;;;;;;;;;;;;;;12.10;81.87;101910.44;5012472;28;19975;-77
2023/06/08 05:31:46;;;;;;;;;;;;;;;12.08;81.89;101912.56;4996880;28;19921;-79
2023/06/08 05:34:11;;;;;;;;;;;;;;;12.06;82.49;101909.34;4998263;28;19927;-75
2023/06/08 05:36:37;;;;;;;;;;;;;;;12.13;81.93;101911.81;5016994;28;19971;-75
2023/06/08 05:39:04;;;;;;;;;;;;;;;12.25;81.24;101901.72;5012665;28;19952;-75
2023/06/08 05:41:30;;;;;;;;;;;;;;;12.34;80.94;101907.47;4997893;28;19925;-75
2023/06/08 05:43:55;;;;;;;;;;;;;;;12.35;80.48;101909.09;5008098;28;19917;-75
2023/06/08 05:46:21;;;;;;;;;;;;;;;12.39;80.60;101902.94;5020228;28;19921;-76
2023/06/08 05:48:46;;;;;;;;;;;;;;;12.24;80.63;101906.28;5007593;28;20283;-76
2023/06/08 05:51:12;;;;;;;;;;;;;;;12.24;81.12;101906.28;5000673;28;19921;-75
2023/06/08 05:53:38;;;;;;;;;;;;;;;12.34;80.81;101902.13;4979791;28;19917;-76
2023/06/08 05:56:04;;;;;;;;;;;;;;;12.48;80.39;101912.19;4994560;28;19917;-76
2023/06/08 05:58:29;;;;;;;;;;;;;;;12.48;79.92;101908.69;5024767;28;19932;-76
2023/06/08 06:00:55;;;;;;;;;;;;;;;12.45;79.68;101912.69;5017337;28;19917;-78
2023/06/08 06:03:21;;;;;;;;;;;;;;;12.47;79.80;101904.41;4982354;28;19921;-77
2023/06/08 06:05:47;;;;;;;;;;;;;;;12.74;79.95;101899.81;4995581;28;19917;-77
2023/06/08 06:08:13;;;;;;;;;;;;;;;13.03;78.00;101894.13;5008706;28;20334;-78
2023/06/08 06:10:38;;;;;;;;;;;;;;;13.23;77.82;101902.38;4994090;28;19921;-76
2023/06/08 06:13:04;;;;;;;;;;;;;;;12.99;77.81;101901.06;5012444;28;19935;-77
2023/06/08 06:15:30;;;;;;;;;;;;;;;13.01;78.36;101902.44;5017223;28;19921;-75
2023/06/08 06:17:56;;;;;;;;;;;;;;;13.31;77.75;101899.19;5003413;28;20011;-79
2023/06/08 06:20:23;;;;;;;;;;;;;;;13.43;77.55;101901.69;4994730;28;20000;-76
2023/06/08 06:22:49;;;;;;;;;;;;;;;13.37;76.64;101911.59;4999711;28;19917;-78
2023/06/08 06:25:21;;;;;;;;;;;;;;;13.65;76.27;101904.22;4997884;28;19921;-77
2023/06/08 06:27:47;;;;;;;;;;;;;;;13.76;75.67;101903.22;5010311;28;19928;-78
2023/06/08 06:30:13;;;;;;;;;;;;;;;13.73;75.67;101906.41;4996604;28;19920;-79
2023/06/08 06:32:39;;;;;;;;;;;;;;;13.93;74.47;101906.50;4997261;28;19923;-78
2023/06/08 06:35:05;;;;;;;;;;;;;;;14.12;74.25;101914.09;5010963;28;20719;-76
2023/06/08 06:37:36;;;;;;;;;;;;;;;14.13;74.37;101908.44;5007122;28;19921;-77
2023/06/08 06:40:04;;;;;;;;;;;;;;;14.24;74.51;101903.91;4995233;28;19968;-77
2023/06/08 06:42:30;;;;;;;;;;;;;;;14.51;72.91;101905.63;5009942;28;19920;-76
2023/06/08 06:45:06;;;;;;;;;;;;;;;14.78;72.02;101910.75;4997446;28;19921;-75
2023/06/08 06:47:32;;;;;;;;;;;;;;;14.80;72.46;101906.72;4993992;28;19918;-77
2023/06/08 06:49:57;;;;;;;;;;;;;;;15.02;70.95;101901.84;5008911;28;20397;-76
2023/06/08 06:52:23;;;;;;;;;;;;;;;15.12;70.68;101906.44;5012557;28;19974;-75
2023/06/08 06:54:48;;;;;;;;;;;;;;;14.66;72.00;101913.72;4993325;28;20391;-77
2023/06/08 06:57:14;;;;;;;;;;;;;;;15.08;71.66;101907.25;5008922;28;20383;-75
2023/06/08 06:59:40;;;;;;;;;;;;;;;14.91;70.98;101911.03;4994192;28;19944;-80
2023/06/08 07:02:06;;;;;;;;;;;;;;;15.01;70.31;101916.41;5000347;28;20003;-76
2023/06/08 07:04:32;;;;;;;;;;;;;;;14.87;70.39;101917.22;5004408;28;19959;-76
2023/06/08 07:06:57;;;;;;;;;;;;;;;15.15;68.83;101915.88;4987118;28;19960;-76
2023/06/08 07:09:24;;;;;;;;;;;;;;;15.34;68.71;101908.03;4996663;28;19925;-78
2023/06/08 07:11:50;;;;;;;;;;;;;;;15.44;69.25;101913.38;5011368;28;19922;-78
2023/06/08 07:14:16;;;;;;;;;;;;;;;15.69;67.52;101912.53;4998233;28;20024;-79
2023/06/08 07:16:41;;;;;;;;;;;;;;;15.98;67.75;101902.69;5010553;28;20532;-76
2023/06/08 07:19:07;;;;;;;;;;;;;;;15.83;66.71;101906.28;4994884;28;19979;-76
2023/06/08 07:21:38;;;;;;;;;;;;;;;15.85;67.10;101908.72;5008579;28;19922;-79
2023/06/08 07:24:06;;;;;;;;;;;;;;;15.91;66.96;101912.97;5028845;28;20020;-77
2023/06/08 07:26:37;;;;;;;;;;;;;;;16.37;66.21;101900.03;4997587;28;19984;-76
2023/06/08 07:29:03;;;;;;;;;;;;;;;16.34;65.69;101913.31;4994602;28;19932;-77
2023/06/08 07:31:29;;;;;;;;;;;;;;;16.70;65.74;101908.50;5007025;28;19917;-77
2023/06/08 07:33:55;;;;;;;;;;;;;;;16.63;66.40;101908.78;5000279;28;20011;-78
2023/06/08 07:36:22;;;;;;;;;;;;;;;17.26;64.01;101915.31;4997116;28;19927;-77
2023/06/08 07:38:51;;;;;;;;;;;;;;;17.29;63.34;101912.06;5010655;28;20395;-77
2023/06/08 07:41:17;;;;;;;;;;;;;;;17.55;63.28;101916.13;4992358;28;19955;-76
2023/06/08 07:43:45;;;;;;;;;;;;;;;17.59;62.50;101917.13;4991766;28;20036;-75
2023/06/08 07:46:11;;;;;;;;;;;;;;;17.71;61.93;101917.56;4991430;28;20387;-77
2023/06/08 07:48:37;;;;;;;;;;;;;;;17.61;61.48;101916.84;4992446;28;19925;-77
2023/06/08 07:51:02;;;;;;;;;;;;;;;17.86;60.64;101913.88;5027838;28;20358;-75
2023/06/08 07:53:34;;;;;;;;;;;;;;;17.84;60.45;101905.22;5002590;28;19984;-77
2023/06/08 07:56:00;;;;;;;;;;;;;;;18.03;61.91;101904.47;4993231;28;19925;-76
2023/06/08 07:58:26;;;;;;;;;;;;;;;18.24;59.91;101909.31;4989240;28;20375;-77
2023/06/08 08:00:52;;;;;;;;;;;;;;;17.95;62.02;101917.56;4991628;28;19968;-75
2023/06/08 08:03:17;;;;;;;;;;;;;;;18.39;59.35;101910.19;4992427;28;19922;-80
2023/06/08 08:05:43;;;;;;;;;;;;;;;18.16;59.87;101906.44;4985608;28;20472;-77
2023/06/08 08:08:08;;;;;;;;;;;;;;;18.18;61.21;101902.34;4977687;28;20028;-77
2023/06/08 08:10:34;;;;;;;;;;;;;;;17.90;61.02;101905.97;5010289;28;19939;-78
2023/06/08 08:12:59;;;;;;;;;;;;;;;18.12;59.93;101900.00;5014819;28;20310;-77
2023/06/08 08:15:26;;;;;;;;;;;;;;;18.52;59.17;101901.31;5018538;28;19921;-77
2023/06/08 08:17:52;;;;;;;;;;;;;;;18.42;58.68;101898.72;4999415;28;19933;-77
2023/06/08 08:20:18;;;;;;;;;;;;;;;18.70;58.80;101897.00;4997763;28;20353;-79
2023/06/08 08:22:43;;;;;;;;;;;;;;;18.65;59.09;101895.13;5002632;28;19968;-76
2023/06/08 08:25:09;;;;;;;;;;;;;;;19.12;59.44;101887.84;4975027;28;19930;-79
2023/06/08 08:27:35;;;;;;;;;;;;;;;18.95;59.18;101893.03;5012595;28;19921;-77
2023/06/08 08:30:02;;;;;;;;;;;;;;;19.27;58.02;101892.19;4996526;28;19920;-79
2023/06/08 08:32:28;;;;;;;;;;;;;;;19.18;56.97;101896.72;5001657;28;19920;-76
2023/06/08 08:34:53;;;;;;;;;;;;;;;19.25;57.64;101888.97;4994730;28;19928;-77
2023/06/08 08:37:19;;;;;;;;;;;;;;;19.66;55.75;101889.03;5000602;28;20009;-75
2023/06/08 08:39:44;;;;;;;;;;;;;;;19.53;55.94;101887.88;4990098;28;20421;-74
2023/06/08 08:42:11;;;;;;;;;;;;;;;20.21;56.95;101894.34;4995046;28;19948;-77
2023/06/08 08:44:38;;;;;;;;;;;;;;;19.99;54.18;101881.53;5015141;28;19964;-78
2023/06/08 08:47:05;;;;;;;;;;;;;;;20.08;55.66;101885.13;4994358;28;20498;-77
2023/06/08 08:49:36;;;;;;;;;;;;;;;20.41;53.31;101883.00;4972913;28;19932;-76
2023/06/08 08:52:02;;;;;;;;;;;;;;;20.61;53.03;101886.38;4990862;28;19921;-76
2023/06/08 08:54:34;;;;;;;;;;;;;;;20.92;54.34;101881.75;5014529;28;19925;-79
2023/06/08 08:57:00;;;;;;;;;;;;;;;20.75;52.35;101881.69;5008451;28;19921;-77
2023/06/08 08:59:28;;;;;;;;;;;;;;;20.97;53.39;101878.91;5002640;28;19925;-75
2023/06/08 09:01:54;;;;;;;;;;;;;;;20.62;53.37;101882.53;4989780;28;19984;-76
2023/06/08 09:04:19;;;;;;;;;;;;;;;20.95;52.76;101877.63;4983245;28;19988;-78
2023/06/08 09:06:49;;;;;;;;;;;;;;;20.96;52.19;101881.97;4981274;28;19928;-75
2023/06/08 09:09:15;;;;;;;;;;;;;;;20.92;52.13;101879.03;4994872;28;19925;-77
2023/06/08 09:11:58;;;;;;;;;;;;;;;21.66;51.70;101881.13;5017567;28;19917;-75
2023/06/08 09:14:24;;;;;;;;;;;;;;;21.21;51.63;101878.56;5012295;28;19924;-76
2023/06/08 09:16:50;;;;;;;;;;;;;;;21.04;51.48;101870.31;5008264;28;19944;-78
2023/06/08 09:19:16;;;;;;;;;;;;;;;21.77;51.04;101868.03;5008790;28;19928;-79
2023/06/08 09:21:43;;;;;;;;;;;;;;;21.69;50.86;101871.53;5006779;28;20373;-79
2023/06/08 09:24:17;;;;;;;;;;;;;;;22.44;50.64;101870.34;4984493;28;20259;-78
2023/06/08 09:26:49;;;;;;;;;;;;;;;22.44;49.40;101873.06;5001562;28;19929;-79
2023/06/08 09:29:36;;;;;;;;;;;;;;;22.06;48.28;101870.94;5023831;28;19925;-78
2023/06/08 09:32:05;;;;;;;;;;;;;;;22.43;50.91;101873.41;5003156;28;20004;-74
2023/06/08 09:34:33;;;;;;;;;;;;;;;22.69;47.67;101878.78;5021380;28;19987;-76
2023/06/08 09:37:09;;;;;;;;;;;;;;;22.53;47.52;101873.06;4996924;28;19928;-79
2023/06/08 09:39:39;;;;;;;;;;;;;;;22.51;47.55;101870.66;5003814;28;19983;-74
2023/06/08 09:42:05;;;;;;;;;;;;;;;22.38;47.51;101860.69;4969850;28;19928;-79
2023/06/08 09:44:35;;;;;;;;;;;;;;;22.84;45.95;101867.38;5010488;28;19927;-76
2023/06/08 09:47:18;;;;;;;;;;;;;;;22.78;46.67;101860.47;4999453;28;19925;-77
2023/06/08 09:49:45;;;;;;;;;;;;;;;22.86;46.84;101860.47;4978729;28;20361;-77
2023/06/08 09:52:20;;;;;;;;;;;;;;;22.96;46.06;101862.03;5006779;28;19918;-77
2023/06/08 09:54:46;;;;;;;;;;;;;;;23.03;47.49;101862.38;4994280;28;19964;-74
2023/06/08 09:57:16;;;;;;;;;;;;;;;23.11;45.73;101856.06;4991963;28;19971;-75
2023/06/08 09:59:46;;;;;;;;;;;;;;;22.86;47.09;101862.41;5005643;28;20034;-77
2023/06/08 10:02:27;;;;;;;;;;;;;;;23.64;44.58;101860.19;5007315;28;20352;-76
2023/06/08 10:04:53;;;;;;;;;;;;;;;23.66;46.80;101854.38;4991907;28;20374;-76
2023/06/08 10:07:24;;;;;;;;;;;;;;;23.10;46.13;101854.47;5002555;28;20390;-78
2023/06/08 10:09:52;;;;;;;;;;;;;;;23.33;45.29;101848.72;5006440;28;19929;-79
2023/06/08 10:12:18;;;;;;;;;;;;;;;23.45;45.29;101851.56;4994045;28;20055;-77
2023/06/08 10:14:43;;;;;;;;;;;;;;;23.88;44.70;101845.03;5000761;28;20012;-75
2023/06/08 10:17:10;;;;;;;;;;;;;;;23.41;44.91;101850.63;5006919;28;19932;-77
2023/06/08 10:19:36;;;;;;;;;;;;;;;24.19;45.69;101834.50;5001751;28;20475;-75
2023/06/08 10:22:01;;;;;;;;;;;;;;;23.97;44.48;101832.09;5014248;28;19921;-74
2023/06/08 10:24:29;;;;;;;;;;;;;;;24.34;44.05;101829.56;4993134;28;19968;-77
2023/06/08 10:27:33;;;;;;;;;;;;;;;24.48;42.69;101832.81;5013150;28;19928;-77
2023/06/08 10:29:59;;;;;;;;;;;;;;;24.66;42.76;101825.22;5004998;28;19925;-75
2023/06/08 10:32:28;;;;;;;;;;;;;;;24.60;43.88;101830.09;4978660;28;19974;-76
2023/06/08 10:35:13;;;;;;;;;;;;;;;24.98;42.62;101820.78;5015446;28;19936;-76
2023/06/08 10:37:43;;;;;;;;;;;;;;;24.94;43.42;101819.91;5012644;28;19921;-77
2023/06/08 10:40:09;;;;;;;;;;;;;;;24.61;42.56;101812.53;4998795;28;19968;-80
2023/06/08 10:42:35;;;;;;;;;;;;;;;25.05;42.50;101815.56;5006863;28;19921;-76
2023/06/08 10:45:02;;;;;;;;;;;;;;;25.25;42.69;101814.66;5011486;28;19999;-76
2023/06/08 10:47:31;;;;;;;;;;;;;;;25.72;41.88;101807.84;5009378;28;19971;-76
2023/06/08 10:49:59;;;;;;;;;;;;;;;25.77;42.85;101808.44;4995431;28;19925;-77
2023/06/08 10:52:26;;;;;;;;;;;;;;;25.43;42.12;101817.16;4989355;28;19925;-76
2023/06/08 10:55:13;;;;;;;;;;;;;;;25.41;43.56;101812.03;4993358;28;19979;-77
2023/06/08 10:57:40;;;;;;;;;;;;;;;25.25;42.10;101809.19;5026979;28;19917;-76
2023/06/08 11:00:28;;;;;;;;;;;;;;;25.55;41.84;101798.75;4994335;28;19939;-77
2023/06/08 11:02:54;;;;;;;;;;;;;;;26.26;41.78;101799.22;5011132;28;19917;-76
2023/06/08 11:05:20;;;;;;;;;;;;;;;25.69;41.26;101798.38;5032353;23;19924;-76
2023/06/08 11:07:46;;;;;;;;;;;;;;;25.51;40.09;101794.31;5023433;28;19928;-77
2023/06/08 11:10:12;;;;;;;;;;;;;;;25.61;40.64;101788.34;5031041;28;19928;-77
2023/06/08 11:12:38;;;;;;;;;;;;;;;26.22;41.48;101796.41;5030568;28;19924;-75
2023/06/08 11:15:03;;;;;;;;;;;;;;;26.59;37.98;101788.75;5028412;28;20390;-75
2023/06/08 11:17:31;;;;;;;;;;;;;;;26.62;39.67;101792.75;5015662;28;19916;-74
2023/06/08 11:19:56;;;;;;;;;;;;;;;26.76;38.80;101787.63;5013676;28;20375;-76
2023/06/08 11:22:22;;;;;;;;;;;;;;;26.60;38.22;101792.31;5025085;28;19944;-76
2023/06/08 11:24:48;;;;;;;;;;;;;;;26.26;36.79;101775.31;5014134;28;20433;-75
2023/06/08 11:27:17;;;;;;;;;;;;;;;26.55;37.95;101781.56;5014771;28;20490;-77
2023/06/08 11:29:46;;;;;;;;;;;;;;;26.56;36.85;101784.00;5046243;28;20007;-77
2023/06/08 11:32:13;;;;;;;;;;;;;;;26.92;37.21;101785.66;5013363;28;19921;-78
2023/06/08 11:34:41;;;;;;;;;;;;;;;26.68;36.42;101780.34;5022231;28;19917;-76
2023/06/08 11:37:07;;;;;;;;;;;;;;;26.77;37.53;101778.22;4998961;28;19921;-77
2023/06/08 11:39:40;;;;;;;;;;;;;;;27.00;35.76;101774.84;5022882;28;19921;-79
2023/06/08 11:42:06;;;;;;;;;;;;;;;27.25;35.85;101776.25;5030039;28;19920;-78
2023/06/08 11:44:31;;;;;;;;;;;;;;;27.20;36.56;101771.81;5014650;28;19923;-78
2023/06/08 11:46:57;;;;;;;;;;;;;;;27.99;38.65;101766.06;5029997;28;19975;-77
2023/06/08 11:49:23;;;;;;;;;;;;;;;27.52;36.62;101763.47;5029947;28;19925;-76
2023/06/08 11:51:52;;;;;;;;;;;;;;;27.35;36.06;101763.88;5011683;28;19927;-77
2023/06/08 11:54:18;;;;;;;;;;;;;;;28.02;35.20;101757.03;5050639;28;19925;-78
2023/06/08 11:56:46;;;;;;;;;;;;;;;27.32;36.67;101764.63;5015563;28;19927;-76
2023/06/08 11:59:13;;;;;;;;;;;;;;;26.99;36.71;101756.75;5040012;28;19924;-77
2023/06/08 12:01:58;;;;;;;;;;;;;;;27.99;38.53;101757.78;5014385;28;19955;-77
2023/06/08 12:04:33;;;;;;;;;;;;;;;27.90;34.62;101751.69;5021883;28;19964;-76
2023/06/08 12:07:14;;;;;;;;;;;;;;;27.61;35.17;101755.00;5012311;28;19921;-72
2023/06/08 12:09:49;;;;;;;;;;;;;;;28.02;35.53;101748.00;5043196;28;19928;-77
2023/06/08 12:12:15;;;;;;;;;;;;;;;28.30;35.56;101742.22;5035746;28;19924;-77
2023/06/08 12:14:44;;;;;;;;;;;;;;;29.22;33.97;101734.66;5054819;28;19974;-75
2023/06/08 12:17:14;;;;;;;;;;;;;;;27.69;35.67;101743.00;5026764;28;19920;-73
2023/06/08 12:19:44;;;;;;;;;;;;;;;28.40;35.23;101741.66;5031633;28;19999;-77
2023/06/08 12:22:10;;;;;;;;;;;;;;;28.39;34.81;101740.06;5021430;28;19925;-76
2023/06/08 12:24:37;;;;;;;;;;;;;;;28.43;32.30;101738.16;5016553;28;20282;-78
2023/06/08 12:27:03;;;;;;;;;;;;;;;29.42;32.49;101735.31;5050561;28;19921;-77
2023/06/08 12:29:29;;;;;;;;;;;;;;;29.01;32.94;101726.91;5040344;28;20011;-76
2023/06/08 12:31:54;;;;;;;;;;;;;;;29.41;33.19;101739.25;5046361;28;20023;-76
2023/06/08 12:34:20;;;;;;;;;;;;;;;29.51;33.33;101735.88;5026350;28;21108;-74
2023/06/08 12:36:46;;;;;;;;;;;;;;;30.09;31.61;101723.50;5015144;28;20287;-77
2023/06/08 12:39:12;;;;;;;;;;;;;;;29.92;29.80;101733.19;5021867;28;20031;-77
2023/06/08 12:41:38;;;;;;;;;;;;;;;29.68;30.69;101725.44;5037507;28;19959;-78